sensor_id;sensor_type;location;lat;lon;timestamp;pressure;altitude;pressure_sealevel;temperature;humidity
3544;BME280;1786;52.870;9.578;2024-03-22T00:01:14;101071.69;;;17.38;56.85
3544;BME280;1786;52.870;9.578;2024-03-22T00:03:40;101077.75;;;17.40;56.24
3544;BME280;1786;52.870;9.578;2024-03-22T00:06:05;101064.66;;;17.37;56.75
3544;BME280;1786;52.870;9.578;2024-03-22T00:08:31;101061.59;;;17.62;55.87
3544;BME280;1786;52.870;9.578;2024-03-22T00:10:57;101060.94;;;17.70;55.73
3544;BME280;1786;52.870;9.578;2024-03-22T00:13:22;101055.75;;;17.78;55.58
3544;BME280;1786;52.870;9.578;2024-03-22T00:15:48;101048.41;;;17.70;56.08
3544;BME280;1786;52.870;9.578;2024-03-22T00:18:14;101046.91;;;17.36;56.81
3544;BME280;1786;52.870;9.578;2024-03-22T00:20:40;101045.22;;;17.56;56.72
3544;BME280;1786;52.870;9.578;2024-03-22T00:23:06;101027.72;;;17.42;56.99
3544;BME280;1786;52.870;9.578;2024-03-22T00:25:31;101025.75;;;17.44;56.66
3544;BME280;1786;52.870;9.578;2024-03-22T00:27:57;101019.25;;;17.37;56.77
3544;BME280;1786;52.870;9.578;2024-03-22T00:30:23;101013.28;;;17.12;57.34
3544;BME280;1786;52.870;9.578;2024-03-22T00:32:49;101009.03;;;16.77;58.69
3544;BME280;1786;52.870;9.578;2024-03-22T00:35:15;101006.38;;;16.77;58.77
3544;BME280;1786;52.870;9.578;2024-03-22T00:37:41;101016.44;;;17.17;57.96
3544;BME280;1786;52.870;9.578;2024-03-22T00:40:07;101020.16;;;17.47;57.07
3544;BME280;1786;52.870;9.578;2024-03-22T00:42:33;101023.59;;;17.38;57.42
3544;BME280;1786;52.870;9.578;2024-03-22T00:44:58;101018.44;;;17.46;57.36
3544;BME280;1786;52.870;9.578;2024-03-22T00:47:24;101003.47;;;17.13;57.88
3544;BME280;1786;52.870;9.578;2024-03-22T00:49:50;101013.38;;;17.22;58.15
3544;BME280;1786;52.870;9.578;2024-03-22T00:52:16;101009.59;;;17.45;57.49
3544;BME280;1786;52.870;9.578;2024-03-22T00:54:42;100995.53;;;17.22;57.69
3544;BME280;1786;52.870;9.578;2024-03-22T00:57:09;100993.69;;;17.23;58.26
3544;BME280;1786;52.870;9.578;2024-03-22T00:59:34;100999.88;;;17.23;58.11
3544;BME280;1786;52.870;9.578;2024-03-22T01:02:00;100996.28;;;17.55;57.09
3544;BME280;1786;52.870;9.578;2024-03-22T01:04:26;100995.19;;;17.16;58.14
3544;BME280;1786;52.870;9.578;2024-03-22T01:06:52;101000.91;;;17.53;57.67
3544;BME280;1786;52.870;9.578;2024-03-22T01:09:17;100993.22;;;17.18;58.63
3544;BME280;1786;52.870;9.578;2024-03-22T01:11:45;100992.53;;;17.37;57.85
3544;BME280;1786;52.870;9.578;2024-03-22T01:14:10;100982.63;;;17.27;58.34
3544;BME280;1786;52.870;9.578;2024-03-22T01:16:36;100980.06;;;17.47;57.60
3544;BME280;1786;52.870;9.578;2024-03-22T01:19:02;100981.41;;;17.62;57.91
3544;BME280;1786;52.870;9.578;2024-03-22T01:21:27;100973.53;;;17.91;56.71
3544;BME280;1786;52.870;9.578;2024-03-22T01:23:53;100964.09;;;17.36;57.92
3544;BME280;1786;52.870;9.578;2024-03-22T01:26:19;100960.25;;;17.49;58.09
3544;BME280;1786;52.870;9.578;2024-03-22T01:28:46;100957.75;;;17.58;57.36
3544;BME280;1786;52.870;9.578;2024-03-22T01:31:12;100951.63;;;17.15;58.81
3544;BME280;1786;52.870;9.578;2024-03-22T01:33:38;100953.03;;;17.40;58.20
3544;BME280;1786;52.870;9.578;2024-03-22T01:36:04;100946.50;;;17.54;57.70
3544;BME280;1786;52.870;9.578;2024-03-22T01:38:31;100958.25;;;17.42;58.27
3544;BME280;1786;52.870;9.578;2024-03-22T01:40:56;100953.97;;;17.60;57.74
3544;BME280;1786;52.870;9.578;2024-03-22T01:43:22;100950.31;;;17.30;58.06
3544;BME280;1786;52.870;9.578;2024-03-22T01:45:48;100944.84;;;17.63;57.45
3544;BME280;1786;52.870;9.578;2024-03-22T01:48:14;100939.72;;;17.50;58.04
3544;BME280;1786;52.870;9.578;2024-03-22T01:50:40;100941.38;;;17.41;58.11
3544;BME280;1786;52.870;9.578;2024-03-22T01:53:06;100936.78;;;17.53;57.73
3544;BME280;1786;52.870;9.578;2024-03-22T01:55:32;100932.81;;;17.47;58.28
3544;BME280;1786;52.870;9.578;2024-03-22T01:57:58;100933.81;;;17.25;58.48
3544;BME280;1786;52.870;9.578;2024-03-22T02:00:24;100929.13;;;17.39;58.52
3544;BME280;1786;52.870;9.578;2024-03-22T02:02:49;100918.06;;;17.53;58.06
3544;BME280;1786;52.870;9.578;2024-03-22T02:05:17;100912.72;;;17.53;57.84
3544;BME280;1786;52.870;9.578;2024-03-22T02:07:47;100902.38;;;17.60;57.67
3544;BME280;1786;52.870;9.578;2024-03-22T02:10:13;100885.06;;;17.64;57.69
3544;BME280;1786;52.870;9.578;2024-03-22T02:12:40;100877.03;;;17.94;57.02
3544;BME280;1786;52.870;9.578;2024-03-22T02:15:07;100882.78;;;17.49;57.97
3544;BME280;1786;52.870;9.578;2024-03-22T02:17:34;100866.50;;;17.22;58.16
3544;BME280;1786;52.870;9.578;2024-03-22T02:20:00;100868.00;;;17.15;58.56
3544;BME280;1786;52.870;9.578;2024-03-22T02:22:26;100862.72;;;17.65;57.43
3544;BME280;1786;52.870;9.578;2024-03-22T02:24:53;100861.41;;;17.90;56.66
3544;BME280;1786;52.870;9.578;2024-03-22T02:27:18;100858.81;;;17.79;56.89
3544;BME280;1786;52.870;9.578;2024-03-22T02:29:44;100855.91;;;17.51;57.52
3544;BME280;1786;52.870;9.578;2024-03-22T02:32:10;100847.81;;;17.62;57.45
3544;BME280;1786;52.870;9.578;2024-03-22T02:34:36;100850.91;;;17.67;57.52
3544;BME280;1786;52.870;9.578;2024-03-22T02:37:02;100843.94;;;17.45;57.74
3544;BME280;1786;52.870;9.578;2024-03-22T02:39:28;100841.16;;;17.47;57.14
3544;BME280;1786;52.870;9.578;2024-03-22T02:41:54;100825.75;;;17.29;58.41
3544;BME280;1786;52.870;9.578;2024-03-22T02:44:20;100830.44;;;17.06;58.57
3544;BME280;1786;52.870;9.578;2024-03-22T02:46:46;100813.13;;;17.32;58.30
3544;BME280;1786;52.870;9.578;2024-03-22T02:49:12;100819.06;;;17.45;57.72
3544;BME280;1786;52.870;9.578;2024-03-22T02:51:38;100815.06;;;17.29;58.65
3544;BME280;1786;52.870;9.578;2024-03-22T02:54:04;100815.59;;;17.23;58.31
3544;BME280;1786;52.870;9.578;2024-03-22T02:56:30;100808.44;;;16.72;59.58
3544;BME280;1786;52.870;9.578;2024-03-22T02:58:56;100811.66;;;16.66;59.71
3544;BME280;1786;52.870;9.578;2024-03-22T03:01:21;100800.28;;;17.25;58.67
3544;BME280;1786;52.870;9.578;2024-03-22T03:03:47;100805.38;;;16.77;59.26
3544;BME280;1786;52.870;9.578;2024-03-22T03:06:13;100797.34;;;17.28;58.52
3544;BME280;1786;52.870;9.578;2024-03-22T03:08:39;100788.13;;;17.42;58.57
3544;BME280;1786;52.870;9.578;2024-03-22T03:11:05;100784.09;;;17.17;59.00
3544;BME280;1786;52.870;9.578;2024-03-22T03:13:30;100790.00;;;17.11;58.75
3544;BME280;1786;52.870;9.578;2024-03-22T03:15:57;100789.13;;;17.11;59.08
3544;BME280;1786;52.870;9.578;2024-03-22T03:18:23;100793.09;;;16.85;59.74
3544;BME280;1786;52.870;9.578;2024-03-22T03:20:49;100787.31;;;16.80;59.67
3544;BME280;1786;52.870;9.578;2024-03-22T03:23:14;100784.56;;;16.92;59.64
3544;BME280;1786;52.870;9.578;2024-03-22T03:25:40;100776.56;;;16.92;59.84
3544;BME280;1786;52.870;9.578;2024-03-22T03:28:06;100781.75;;;16.93;59.80
3544;BME280;1786;52.870;9.578;2024-03-22T03:30:36;100772.59;;;16.86;60.11
3544;BME280;1786;52.870;9.578;2024-03-22T03:33:01;100770.75;;;17.17;59.46
3544;BME280;1786;52.870;9.578;2024-03-22T03:35:27;100773.63;;;16.95;59.49
3544;BME280;1786;52.870;9.578;2024-03-22T03:37:54;100760.88;;;17.58;58.53
3544;BME280;1786;52.870;9.578;2024-03-22T03:40:20;100761.41;;;17.42;59.10
3544;BME280;1786;52.870;9.578;2024-03-22T03:42:47;100755.66;;;16.97;60.22
3544;BME280;1786;52.870;9.578;2024-03-22T03:45:13;100763.31;;;17.21;59.83
3544;BME280;1786;52.870;9.578;2024-03-22T03:47:38;100750.66;;;17.23;58.74
3544;BME280;1786;52.870;9.578;2024-03-22T03:50:04;100741.34;;;17.07;60.16
3544;BME280;1786;52.870;9.578;2024-03-22T03:52:30;100741.16;;;17.40;59.32
3544;BME280;1786;52.870;9.578;2024-03-22T03:54:56;100733.44;;;17.56;58.99
3544;BME280;1786;52.870;9.578;2024-03-22T03:57:21;100727.69;;;17.70;58.70
3544;BME280;1786;52.870;9.578;2024-03-22T03:59:47;100730.16;;;17.23;59.65
3544;BME280;1786;52.870;9.578;2024-03-22T04:02:13;100716.97;;;17.32;59.93
3544;BME280;1786;52.870;9.578;2024-03-22T04:04:39;100718.97;;;17.78;58.34
3544;BME280;1786;52.870;9.578;2024-03-22T04:07:05;100725.81;;;16.82;61.00
3544;BME280;1786;52.870;9.578;2024-03-22T04:09:31;100716.03;;;17.02;61.00
3544;BME280;1786;52.870;9.578;2024-03-22T04:11:57;100709.91;;;17.21;60.28
3544;BME280;1786;52.870;9.578;2024-03-22T04:14:25;100704.47;;;17.32;60.03
3544;BME280;1786;52.870;9.578;2024-03-22T04:16:51;100706.53;;;17.19;60.23
3544;BME280;1786;52.870;9.578;2024-03-22T04:19:16;100706.53;;;17.09;61.00
3544;BME280;1786;52.870;9.578;2024-03-22T04:21:42;100705.91;;;16.96;61.24
3544;BME280;1786;52.870;9.578;2024-03-22T04:24:08;100704.81;;;16.77;61.62
3544;BME280;1786;52.870;9.578;2024-03-22T04:26:33;100697.44;;;17.41;60.33
3544;BME280;1786;52.870;9.578;2024-03-22T04:28:59;100696.41;;;17.22;60.55
3544;BME280;1786;52.870;9.578;2024-03-22T04:31:25;100686.63;;;17.52;60.26
3544;BME280;1786;52.870;9.578;2024-03-22T04:33:50;100685.50;;;17.64;59.49
3544;BME280;1786;52.870;9.578;2024-03-22T04:36:16;100694.53;;;17.83;59.21
3544;BME280;1786;52.870;9.578;2024-03-22T04:38:42;100688.28;;;17.24;60.78
3544;BME280;1786;52.870;9.578;2024-03-22T04:41:07;100677.63;;;17.72;59.68
3544;BME280;1786;52.870;9.578;2024-03-22T04:43:33;100671.16;;;17.65;59.86
3544;BME280;1786;52.870;9.578;2024-03-22T04:45:59;100665.81;;;17.36;61.31
3544;BME280;1786;52.870;9.578;2024-03-22T04:48:25;100667.22;;;17.40;61.04
3544;BME280;1786;52.870;9.578;2024-03-22T04:50:52;100662.13;;;17.27;61.56
3544;BME280;1786;52.870;9.578;2024-03-22T04:53:21;100669.06;;;17.59;60.32
3544;BME280;1786;52.870;9.578;2024-03-22T04:55:47;100664.53;;;17.89;59.74
3544;BME280;1786;52.870;9.578;2024-03-22T04:58:17;100668.06;;;17.50;60.41
3544;BME280;1786;52.870;9.578;2024-03-22T05:00:44;100662.75;;;17.89;59.84
3544;BME280;1786;52.870;9.578;2024-03-22T05:03:10;100656.53;;;17.89;59.88
3544;BME280;1786;52.870;9.578;2024-03-22T05:05:36;100663.28;;;17.93;59.64
3544;BME280;1786;52.870;9.578;2024-03-22T05:08:02;100661.63;;;17.92;60.15
3544;BME280;1786;52.870;9.578;2024-03-22T05:10:29;100652.03;;;17.50;60.61
3544;BME280;1786;52.870;9.578;2024-03-22T05:12:55;100649.75;;;17.46;61.45
3544;BME280;1786;52.870;9.578;2024-03-22T05:15:21;100637.28;;;17.37;61.58
3544;BME280;1786;52.870;9.578;2024-03-22T05:17:48;100638.78;;;17.78;60.34
3544;BME280;1786;52.870;9.578;2024-03-22T05:20:14;100643.78;;;18.30;59.30
3544;BME280;1786;52.870;9.578;2024-03-22T05:22:40;100641.59;;;17.96;59.73
3544;BME280;1786;52.870;9.578;2024-03-22T05:25:06;100632.06;;;17.64;60.73
3544;BME280;1786;52.870;9.578;2024-03-22T05:27:32;100628.97;;;17.40;61.67
3544;BME280;1786;52.870;9.578;2024-03-22T05:29:58;100616.88;;;17.36;61.67
3544;BME280;1786;52.870;9.578;2024-03-22T05:32:25;100617.72;;;17.46;61.21
3544;BME280;1786;52.870;9.578;2024-03-22T05:34:55;100620.13;;;17.39;61.55
3544;BME280;1786;52.870;9.578;2024-03-22T05:37:21;100620.50;;;17.73;60.55
3544;BME280;1786;52.870;9.578;2024-03-22T05:39:47;100623.91;;;17.95;60.37
3544;BME280;1786;52.870;9.578;2024-03-22T05:42:13;100622.47;;;17.91;60.19
3544;BME280;1786;52.870;9.578;2024-03-22T05:44:39;100622.97;;;18.24;59.73
3544;BME280;1786;52.870;9.578;2024-03-22T05:47:04;100618.28;;;18.35;59.38
3544;BME280;1786;52.870;9.578;2024-03-22T05:49:30;100615.59;;;17.88;60.29
3544;BME280;1786;52.870;9.578;2024-03-22T05:51:57;100613.59;;;18.00;60.40
3544;BME280;1786;52.870;9.578;2024-03-22T05:54:22;100611.53;;;17.36;62.21
3544;BME280;1786;52.870;9.578;2024-03-22T05:56:48;100595.78;;;17.33;62.04
3544;BME280;1786;52.870;9.578;2024-03-22T05:59:14;100600.31;;;17.42;61.92
3544;BME280;1786;52.870;9.578;2024-03-22T06:01:39;100588.72;;;17.90;61.06
3544;BME280;1786;52.870;9.578;2024-03-22T06:04:05;100605.06;;;17.67;61.33
3544;BME280;1786;52.870;9.578;2024-03-22T06:06:32;100606.72;;;17.59;61.53
3544;BME280;1786;52.870;9.578;2024-03-22T06:08:58;100601.66;;;16.97;63.43
3544;BME280;1786;52.870;9.578;2024-03-22T06:11:25;100603.50;;;17.45;62.22
3544;BME280;1786;52.870;9.578;2024-03-22T06:13:51;100603.22;;;17.78;61.39
3544;BME280;1786;52.870;9.578;2024-03-22T06:16:17;100606.72;;;17.59;61.61
3544;BME280;1786;52.870;9.578;2024-03-22T06:18:42;100611.25;;;17.58;61.73
3544;BME280;1786;52.870;9.578;2024-03-22T06:21:08;100606.34;;;17.44;62.26
3544;BME280;1786;52.870;9.578;2024-03-22T06:23:34;100598.44;;;17.71;61.90
3544;BME280;1786;52.870;9.578;2024-03-22T06:25:59;100589.84;;;17.97;61.36
3544;BME280;1786;52.870;9.578;2024-03-22T06:28:28;100595.78;;;17.71;62.15
3544;BME280;1786;52.870;9.578;2024-03-22T06:30:54;100586.53;;;17.37;63.19
3544;BME280;1786;52.870;9.578;2024-03-22T06:33:20;100581.19;;;17.37;62.91
3544;BME280;1786;52.870;9.578;2024-03-22T06:35:46;100594.63;;;17.84;61.83
3544;BME280;1786;52.870;9.578;2024-03-22T06:38:13;100586.56;;;18.03;61.70
3544;BME280;1786;52.870;9.578;2024-03-22T06:40:38;100583.69;;;18.24;60.73
3544;BME280;1786;52.870;9.578;2024-03-22T06:43:04;100582.88;;;18.14;61.12
3544;BME280;1786;52.870;9.578;2024-03-22T06:45:30;100566.53;;;17.80;61.93
3544;BME280;1786;52.870;9.578;2024-03-22T06:47:56;100577.06;;;18.28;61.21
3544;BME280;1786;52.870;9.578;2024-03-22T06:50:21;100558.31;;;17.91;61.39
3544;BME280;1786;52.870;9.578;2024-03-22T06:52:53;100557.56;;;18.08;61.32
3544;BME280;1786;52.870;9.578;2024-03-22T06:55:20;100557.69;;;18.44;60.17
3544;BME280;1786;52.870;9.578;2024-03-22T06:57:47;100561.50;;;18.42;60.84
3544;BME280;1786;52.870;9.578;2024-03-22T07:00:13;100552.44;;;18.52;60.21
3544;BME280;1786;52.870;9.578;2024-03-22T07:02:39;100561.44;;;18.51;60.54
3544;BME280;1786;52.870;9.578;2024-03-22T07:05:06;100555.41;;;18.49;60.41
3544;BME280;1786;52.870;9.578;2024-03-22T07:07:33;100559.56;;;18.89;59.60
3544;BME280;1786;52.870;9.578;2024-03-22T07:09:59;100559.16;;;18.56;60.20
3544;BME280;1786;52.870;9.578;2024-03-22T07:12:24;100564.16;;;18.97;59.53
3544;BME280;1786;52.870;9.578;2024-03-22T07:14:50;100563.38;;;18.31;61.41
3544;BME280;1786;52.870;9.578;2024-03-22T07:17:16;100550.84;;;18.32;61.21
3544;BME280;1786;52.870;9.578;2024-03-22T07:19:41;100556.09;;;18.51;60.98
3544;BME280;1786;52.870;9.578;2024-03-22T07:22:08;100563.25;;;18.60;60.61
3544;BME280;1786;52.870;9.578;2024-03-22T07:24:34;100551.34;;;18.73;60.43
3544;BME280;1786;52.870;9.578;2024-03-22T07:27:00;100563.00;;;18.99;60.06
3544;BME280;1786;52.870;9.578;2024-03-22T07:29:26;100564.31;;;18.95;59.80
3544;BME280;1786;52.870;9.578;2024-03-22T07:31:52;100570.63;;;18.76;59.88
3544;BME280;1786;52.870;9.578;2024-03-22T07:34:17;100566.03;;;18.31;61.05
3544;BME280;1786;52.870;9.578;2024-03-22T07:36:43;100559.28;;;18.00;61.93
3544;BME280;1786;52.870;9.578;2024-03-22T07:39:09;100565.50;;;18.28;61.38
3544;BME280;1786;52.870;9.578;2024-03-22T07:41:35;100549.47;;;18.28;62.07
3544;BME280;1786;52.870;9.578;2024-03-22T07:44:01;100546.41;;;18.23;62.81
3544;BME280;1786;52.870;9.578;2024-03-22T07:46:27;100548.16;;;18.59;62.24
3544;BME280;1786;52.870;9.578;2024-03-22T07:48:53;100542.47;;;18.72;62.33
3544;BME280;1786;52.870;9.578;2024-03-22T07:51:19;100534.91;;;18.40;62.85
3544;BME280;1786;52.870;9.578;2024-03-22T07:53:45;100530.56;;;18.29;63.34
3544;BME280;1786;52.870;9.578;2024-03-22T07:56:11;100537.53;;;18.95;61.57
3544;BME280;1786;52.870;9.578;2024-03-22T07:58:38;100530.34;;;18.78;61.79
3544;BME280;1786;52.870;9.578;2024-03-22T08:01:04;100537.75;;;18.84;61.98
3544;BME280;1786;52.870;9.578;2024-03-22T08:03:30;100535.97;;;18.75;62.13
3544;BME280;1786;52.870;9.578;2024-03-22T08:05:55;100529.84;;;19.36;61.07
3544;BME280;1786;52.870;9.578;2024-03-22T08:08:21;100529.81;;;18.65;61.98
3544;BME280;1786;52.870;9.578;2024-03-22T08:10:48;100525.53;;;18.72;62.79
3544;BME280;1786;52.870;9.578;2024-03-22T08:13:14;100529.19;;;18.53;62.94
3544;BME280;1786;52.870;9.578;2024-03-22T08:15:40;100530.50;;;18.67;63.02
3544;BME280;1786;52.870;9.578;2024-03-22T08:18:06;100525.44;;;18.46;63.96
3544;BME280;1786;52.870;9.578;2024-03-22T08:20:33;100521.84;;;19.18;61.98
3544;BME280;1786;52.870;9.578;2024-03-22T08:22:59;100528.09;;;19.27;61.82
3544;BME280;1786;52.870;9.578;2024-03-22T08:25:26;100517.47;;;18.99;62.48
3544;BME280;1786;52.870;9.578;2024-03-22T08:27:51;100527.13;;;19.28;61.66
3544;BME280;1786;52.870;9.578;2024-03-22T08:30:21;100520.72;;;18.85;62.25
3544;BME280;1786;52.870;9.578;2024-03-22T08:32:47;100519.19;;;18.83;62.62
3544;BME280;1786;52.870;9.578;2024-03-22T08:35:13;100512.75;;;18.93;62.94
3544;BME280;1786;52.870;9.578;2024-03-22T08:37:39;100507.16;;;18.87;63.32
3544;BME280;1786;52.870;9.578;2024-03-22T08:40:05;100512.88;;;19.10;61.93
3544;BME280;1786;52.870;9.578;2024-03-22T08:42:31;100514.22;;;18.88;63.05
3544;BME280;1786;52.870;9.578;2024-03-22T08:44:57;100509.28;;;18.37;63.97
3544;BME280;1786;52.870;9.578;2024-03-22T08:47:23;100502.06;;;18.66;64.07
3544;BME280;1786;52.870;9.578;2024-03-22T08:49:49;100500.69;;;18.62;63.94
3544;BME280;1786;52.870;9.578;2024-03-22T08:52:15;100507.00;;;18.88;64.18
3544;BME280;1786;52.870;9.578;2024-03-22T08:54:41;100497.97;;;19.07;63.43
3544;BME280;1786;52.870;9.578;2024-03-22T08:57:06;100492.97;;;18.58;63.88
3544;BME280;1786;52.870;9.578;2024-03-22T08:59:32;100488.28;;;18.88;63.46
3544;BME280;1786;52.870;9.578;2024-03-22T09:01:58;100485.97;;;18.75;63.71
3544;BME280;1786;52.870;9.578;2024-03-22T09:04:25;100481.56;;;18.56;64.65
3544;BME280;1786;52.870;9.578;2024-03-22T09:06:51;100490.53;;;18.65;63.93
3544;BME280;1786;52.870;9.578;2024-03-22T09:09:16;100485.44;;;19.08;63.36
3544;BME280;1786;52.870;9.578;2024-03-22T09:11:46;100478.41;;;18.43;65.15
3544;BME280;1786;52.870;9.578;2024-03-22T09:14:12;100480.00;;;18.81;64.35
3544;BME280;1786;52.870;9.578;2024-03-22T09:16:38;100483.56;;;18.72;63.92
3544;BME280;1786;52.870;9.578;2024-03-22T09:19:04;100488.94;;;18.72;64.11
3544;BME280;1786;52.870;9.578;2024-03-22T09:21:29;100476.56;;;18.44;64.44
3544;BME280;1786;52.870;9.578;2024-03-22T09:23:57;100471.66;;;18.85;63.44
3544;BME280;1786;52.870;9.578;2024-03-22T09:26:22;100466.53;;;18.91;63.36
3544;BME280;1786;52.870;9.578;2024-03-22T09:28:48;100468.75;;;18.96;63.18
3544;BME280;1786;52.870;9.578;2024-03-22T09:31:16;100470.84;;;18.74;63.54
3544;BME280;1786;52.870;9.578;2024-03-22T09:33:42;100465.09;;;18.79;63.75
3544;BME280;1786;52.870;9.578;2024-03-22T09:36:08;100471.56;;;18.94;63.36
3544;BME280;1786;52.870;9.578;2024-03-22T09:38:34;100460.09;;;18.84;63.68
3544;BME280;1786;52.870;9.578;2024-03-22T09:41:00;100470.28;;;18.80;64.21
3544;BME280;1786;52.870;9.578;2024-03-22T09:43:30;100466.75;;;19.16;63.16
3544;BME280;1786;52.870;9.578;2024-03-22T09:45:58;100457.88;;;19.15;63.10
3544;BME280;1786;52.870;9.578;2024-03-22T09:48:24;100444.91;;;18.39;65.60
3544;BME280;1786;52.870;9.578;2024-03-22T09:50:52;100443.53;;;18.17;65.89
3544;BME280;1786;52.870;9.578;2024-03-22T09:53:20;100444.97;;;18.75;65.03
3544;BME280;1786;52.870;9.578;2024-03-22T09:55:48;100441.28;;;18.40;66.33
3544;BME280;1786;52.870;9.578;2024-03-22T09:58:15;100446.75;;;18.74;65.46
3544;BME280;1786;52.870;9.578;2024-03-22T10:00:43;100447.41;;;18.86;65.29
3544;BME280;1786;52.870;9.578;2024-03-22T10:03:12;100443.91;;;19.56;63.82
3544;BME280;1786;52.870;9.578;2024-03-22T10:05:38;100431.59;;;19.45;63.27
3544;BME280;1786;52.870;9.578;2024-03-22T10:08:04;100432.88;;;18.35;65.73
3544;BME280;1786;52.870;9.578;2024-03-22T10:10:33;100434.94;;;18.77;64.72
3544;BME280;1786;52.870;9.578;2024-03-22T10:13:03;100428.19;;;18.73;65.63
3544;BME280;1786;52.870;9.578;2024-03-22T10:15:30;100430.94;;;18.99;64.76
3544;BME280;1786;52.870;9.578;2024-03-22T10:17:57;100421.66;;;19.37;63.98
3544;BME280;1786;52.870;9.578;2024-03-22T10:20:23;100419.63;;;19.31;63.51
3544;BME280;1786;52.870;9.578;2024-03-22T10:22:54;100423.16;;;19.06;63.74
3544;BME280;1786;52.870;9.578;2024-03-22T10:25:22;100424.03;;;19.14;64.14
3544;BME280;1786;52.870;9.578;2024-03-22T10:27:48;100424.00;;;18.70;64.88
3544;BME280;1786;52.870;9.578;2024-03-22T10:30:15;100422.38;;;18.42;64.55
3544;BME280;1786;52.870;9.578;2024-03-22T10:32:46;100435.22;;;18.38;64.78
3544;BME280;1786;52.870;9.578;2024-03-22T10:35:13;100427.78;;;18.77;63.84
3544;BME280;1786;52.870;9.578;2024-03-22T10:37:40;100422.69;;;18.74;63.69
3544;BME280;1786;52.870;9.578;2024-03-22T10:40:06;100429.75;;;18.93;63.23
3544;BME280;1786;52.870;9.578;2024-03-22T10:42:39;100421.22;;;19.16;62.75
3544;BME280;1786;52.870;9.578;2024-03-22T10:45:07;100422.09;;;18.45;63.78
3544;BME280;1786;52.870;9.578;2024-03-22T10:47:34;100420.63;;;18.50;63.95
3544;BME280;1786;52.870;9.578;2024-03-22T10:50:08;100429.56;;;18.41;64.25
3544;BME280;1786;52.870;9.578;2024-03-22T10:52:40;100430.63;;;18.30;64.67
3544;BME280;1786;52.870;9.578;2024-03-22T10:55:12;100415.56;;;17.84;66.07
3544;BME280;1786;52.870;9.578;2024-03-22T10:57:41;100417.09;;;18.32;65.36
3544;BME280;1786;52.870;9.578;2024-03-22T11:00:10;100424.41;;;18.75;63.90
3544;BME280;1786;52.870;9.578;2024-03-22T11:02:36;100420.78;;;18.49;65.05
3544;BME280;1786;52.870;9.578;2024-03-22T11:05:06;100424.66;;;18.54;64.80
3544;BME280;1786;52.870;9.578;2024-03-22T11:07:32;100421.22;;;18.26;65.54
3544;BME280;1786;52.870;9.578;2024-03-22T11:10:01;100419.41;;;18.63;64.81
3544;BME280;1786;52.870;9.578;2024-03-22T11:12:29;100419.63;;;18.51;65.17
3544;BME280;1786;52.870;9.578;2024-03-22T11:14:59;100412.63;;;18.86;64.13
3544;BME280;1786;52.870;9.578;2024-03-22T11:17:25;100416.16;;;19.13;63.75
3544;BME280;1786;52.870;9.578;2024-03-22T11:19:51;100409.34;;;19.18;63.53
3544;BME280;1786;52.870;9.578;2024-03-22T11:22:18;100408.78;;;18.71;64.03
3544;BME280;1786;52.870;9.578;2024-03-22T11:24:43;100406.47;;;19.20;63.45
3544;BME280;1786;52.870;9.578;2024-03-22T11:27:11;100403.56;;;19.31;62.78
3544;BME280;1786;52.870;9.578;2024-03-22T11:29:38;100411.03;;;19.28;63.00
3544;BME280;1786;52.870;9.578;2024-03-22T11:32:09;100410.72;;;19.05;63.37
3544;BME280;1786;52.870;9.578;2024-03-22T11:34:38;100400.31;;;18.57;64.50
3544;BME280;1786;52.870;9.578;2024-03-22T11:37:05;100416.03;;;18.60;64.68
3544;BME280;1786;52.870;9.578;2024-03-22T11:39:33;100411.22;;;18.82;63.70
3544;BME280;1786;52.870;9.578;2024-03-22T11:42:02;100404.03;;;18.47;63.83
3544;BME280;1786;52.870;9.578;2024-03-22T11:44:28;100401.84;;;18.42;63.67
3544;BME280;1786;52.870;9.578;2024-03-22T11:46:54;100407.63;;;18.91;62.39
3544;BME280;1786;52.870;9.578;2024-03-22T11:49:20;100398.06;;;19.15;62.31
3544;BME280;1786;52.870;9.578;2024-03-22T11:51:46;100394.38;;;18.90;62.04
3544;BME280;1786;52.870;9.578;2024-03-22T11:54:11;100396.03;;;19.09;62.12
3544;BME280;1786;52.870;9.578;2024-03-22T11:56:39;100403.94;;;19.10;62.07
3544;BME280;1786;52.870;9.578;2024-03-22T11:59:06;100394.31;;;18.64;63.06
3544;BME280;1786;52.870;9.578;2024-03-22T12:01:32;100394.88;;;18.67;62.49
3544;BME280;1786;52.870;9.578;2024-03-22T12:03:58;100384.09;;;18.77;62.51
3544;BME280;1786;52.870;9.578;2024-03-22T12:06:25;100379.69;;;18.94;61.98
3544;BME280;1786;52.870;9.578;2024-03-22T12:08:50;100377.16;;;19.10;61.46
3544;BME280;1786;52.870;9.578;2024-03-22T12:11:16;100374.03;;;18.97;62.10
3544;BME280;1786;52.870;9.578;2024-03-22T12:13:42;100380.50;;;18.50;63.36
3544;BME280;1786;52.870;9.578;2024-03-22T12:16:07;100372.31;;;18.70;63.07
3544;BME280;1786;52.870;9.578;2024-03-22T12:18:33;100360.69;;;19.31;61.20
3544;BME280;1786;52.870;9.578;2024-03-22T12:21:00;100354.78;;;19.28;61.78
3544;BME280;1786;52.870;9.578;2024-03-22T12:23:25;100360.59;;;19.15;62.02
3544;BME280;1786;52.870;9.578;2024-03-22T12:25:51;100367.09;;;18.86;62.40
3544;BME280;1786;52.870;9.578;2024-03-22T12:28:21;100354.22;;;18.72;62.49
3544;BME280;1786;52.870;9.578;2024-03-22T12:30:49;100364.38;;;18.78;62.79
3544;BME280;1786;52.870;9.578;2024-03-22T12:33:15;100369.50;;;18.97;62.07
3544;BME280;1786;52.870;9.578;2024-03-22T12:35:41;100353.84;;;19.02;61.14
3544;BME280;1786;52.870;9.578;2024-03-22T12:38:07;100356.88;;;19.08;62.09
3544;BME280;1786;52.870;9.578;2024-03-22T12:40:37;100350.47;;;19.35;61.30
3544;BME280;1786;52.870;9.578;2024-03-22T12:43:03;100352.97;;;18.76;62.16
3544;BME280;1786;52.870;9.578;2024-03-22T12:45:30;100353.19;;;18.29;63.07
3544;BME280;1786;52.870;9.578;2024-03-22T12:47:55;100342.88;;;18.52;62.27
3544;BME280;1786;52.870;9.578;2024-03-22T12:50:21;100360.28;;;18.74;62.09
3544;BME280;1786;52.870;9.578;2024-03-22T12:52:47;100355.66;;;18.40;62.57
3544;BME280;1786;52.870;9.578;2024-03-22T12:55:13;100348.34;;;18.42;62.91
3544;BME280;1786;52.870;9.578;2024-03-22T12:57:38;100347.53;;;18.86;61.88
3544;BME280;1786;52.870;9.578;2024-03-22T13:00:06;100350.16;;;19.03;61.62
3544;BME280;1786;52.870;9.578;2024-03-22T13:02:41;100355.75;;;18.92;61.30
3544;BME280;1786;52.870;9.578;2024-03-22T13:05:07;100347.50;;;19.12;61.26